METAR AND TAF INFORMATION
METAR FOR HESH
ADDS - METARS form results

(0124 UTC 18 November 2019)
Data provider http://aviationweather.gov/metar/data/
 
Forecast for: HESH (SHARM EL SHEIKHI, EG)
Text: TAF HESH 172300Z 1800/1906 32010KT CAVOK
Forecast period: 0000 UTC 18 November 2019 to 0600 UTC 19 November 2019
Forecast type: FROM: standard forecast or significant change
Winds: from the NW (320 degrees) at 12 MPH (10 knots; 5.1 m/s)
Visibility: 6 or more miles 10+ km)
Ceiling: unknown
Clouds: missing
Weather: NSW  (no significant weather)

 AIRPORT MAP

 RUNWAY INFORMATION

 AIRPORT FREQUENCIES
Type APP Name RADAR Frequency 121.1 MHZ
Type GND Name GND Frequency 121.9 MHZ
Type RDO Name RDO Frequency 317.5 MHZ
Type TWR Name TWR Frequency 118.9 MHZ

 AIRPORT NEAR NAVIGATION AIDS
Type VOR-DME Name Sharm El Sheikh Frequency 114200 KHZ
Type NDB Name Sharm El Sheikh Frequency 335 KHZ



2018 Air Astana Virtual Airline